Time;durP1;ratioP1;P1;durP2;ratioP2;P2;SDS_P1;SDS_P2;PMS_P1;PMS_P2;Temp;Humidity;BMP_temperature;BMP_pressure;BME280_temperature;BME280_humidity;BME280_pressure;Samples;Min_cycle;Max_cycle;Signal;HPM_P1;HPM_P2
2022/12/03 00:00:55;;;;;;;45.03;18.97;;;3.40;99.90;;;;;;5049714;28;20209;-67
2022/12/03 00:03:22;;;;;;;45.63;18.17;;;3.40;99.90;;;;;;5059099;28;20601;-68
2022/12/03 00:05:49;;;;;;;43.37;18.33;;;3.40;99.90;;;;;;5044461;28;20208;-69
2022/12/03 00:08:16;;;;;;;37.97;16.53;;;3.40;99.90;;;;;;5064578;28;20478;-67
2022/12/03 00:10:43;;;;;;;40.20;17.13;;;3.40;99.90;;;;;;5046581;28;20209;-71
2022/12/03 00:13:10;;;;;;;38.67;17.77;;;3.40;99.90;;;;;;5062283;28;20571;-67
2022/12/03 00:15:36;;;;;;;44.07;18.33;;;3.50;99.90;;;;;;5060505;28;20215;-68
2022/12/03 00:18:03;;;;;;;44.23;16.93;;;3.40;99.90;;;;;;5065074;28;20211;-67
2022/12/03 00:20:30;;;;;;;38.80;17.10;;;3.40;99.90;;;;;;5055900;28;20222;-68
2022/12/03 00:22:57;;;;;;;38.43;17.77;;;3.40;99.90;;;;;;5062190;28;20227;-68
2022/12/03 00:25:24;;;;;;;43.50;18.57;;;3.40;99.90;;;;;;5066637;28;20215;-68
2022/12/03 00:27:50;;;;;;;38.63;17.10;;;3.40;99.90;;;;;;5060023;28;20572;-68
2022/12/03 00:30:17;;;;;;;39.73;17.77;;;3.50;99.90;;;;;;5058632;28;20254;-68
2022/12/03 00:32:44;;;;;;;42.03;18.40;;;3.40;99.90;;;;;;5061659;28;20290;-68
2022/12/03 00:35:11;;;;;;;39.43;18.33;;;3.40;99.90;;;;;;5043486;28;20216;-68
2022/12/03 00:37:38;;;;;;;45.23;18.97;;;3.40;99.90;;;;;;5068587;28;20256;-68
2022/12/03 00:40:06;;;;;;;44.67;19.17;;;3.40;99.90;;;;;;5078416;28;20766;-67
2022/12/03 00:42:33;;;;;;;41.57;18.70;;;3.40;99.90;;;;;;5060373;28;21014;-69
2022/12/03 00:45:00;;;;;;;44.33;19.93;;;3.40;99.90;;;;;;5058454;28;20232;-69
2022/12/03 00:47:27;;;;;;;42.23;19.10;;;3.40;99.90;;;;;;5060069;28;20305;-69
2022/12/03 00:49:59;;;;;;;43.93;19.53;;;3.40;99.90;;;;;;5067159;28;20208;-69
2022/12/03 00:52:25;;;;;;;43.17;19.43;;;3.50;99.90;;;;;;5083760;28;20209;-68
2022/12/03 00:54:53;;;;;;;48.23;19.30;;;3.40;99.90;;;;;;5064736;28;20204;-68
2022/12/03 00:57:20;;;;;;;43.80;19.07;;;3.40;99.90;;;;;;5055323;28;20716;-68
2022/12/03 00:59:47;;;;;;;42.47;18.90;;;3.40;99.90;;;;;;5061698;28;20202;-68
2022/12/03 01:02:14;;;;;;;43.97;19.43;;;3.40;99.90;;;;;;5059825;28;20217;-69
2022/12/03 01:04:42;;;;;;;47.60;20.20;;;3.40;99.90;;;;;;5062093;28;20197;-68
2022/12/03 01:07:09;;;;;;;45.40;20.30;;;3.40;99.90;;;;;;5060448;28;20585;-69
2022/12/03 01:09:35;;;;;;;45.43;19.37;;;3.40;99.90;;;;;;5065807;28;20597;-68
2022/12/03 01:12:02;;;;;;;43.60;19.50;;;3.40;99.90;;;;;;5048042;28;20692;-69
2022/12/03 01:14:29;;;;;;;46.97;20.20;;;3.40;99.90;;;;;;5046819;28;20327;-68
2022/12/03 01:16:56;;;;;;;51.87;20.10;;;3.40;99.90;;;;;;5064519;28;20648;-68
2022/12/03 01:19:23;;;;;;;45.23;20.17;;;3.40;99.90;;;;;;5063502;28;20681;-68
2022/12/03 01:21:51;;;;;;;49.60;21.23;;;3.40;99.90;;;;;;5059457;28;20681;-68
2022/12/03 01:24:18;;;;;;;46.03;20.17;;;3.40;99.90;;;;;;5061299;28;20201;-68
2022/12/03 01:26:45;;;;;;;46.97;19.53;;;3.40;99.90;;;;;;5059195;28;20217;-70
2022/12/03 01:29:12;;;;;;;43.93;19.73;;;3.40;99.90;;;;;;5061600;28;20307;-68
2022/12/03 01:34:24;;;;;;;45.87;19.47;;;3.50;99.90;;;;;;5060417;28;20275;-68
2022/12/03 01:36:51;;;;;;;41.47;18.27;;;3.50;99.90;;;;;;5058237;28;20223;-68
2022/12/03 01:39:19;;;;;;;45.40;20.30;;;3.50;99.90;;;;;;5078918;28;20733;-68
2022/12/03 01:41:47;;;;;;;47.43;20.00;;;3.50;99.90;;;;;;5058074;28;20704;-67
2022/12/03 01:44:17;;;;;;;44.23;18.20;;;3.50;99.90;;;;;;5055753;28;20360;-69
2022/12/03 01:46:45;;;;;;;38.50;17.53;;;3.50;99.90;;;;;;5055790;28;20570;-68
2022/12/03 01:49:26;;;;;;;42.90;19.33;;;3.50;99.90;;;;;;5059494;28;20213;-69
2022/12/03 01:51:54;;;;;;;40.37;19.17;;;3.40;99.90;;;;;;5058608;28;20207;-68
2022/12/03 01:54:34;;;;;;;49.37;19.27;;;3.40;99.90;;;;;;5064565;28;20228;-69
2022/12/03 01:57:01;;;;;;;41.33;18.80;;;3.40;99.90;;;;;;5063254;28;20328;-67
2022/12/03 01:59:34;;;;;;;42.07;19.13;;;3.50;99.90;;;;;;5059866;28;20201;-69
2022/12/03 02:02:26;;;;;;;41.90;18.83;;;3.50;99.90;;;;;;5055950;28;20215;-68
2022/12/03 02:04:53;;;;;;;47.77;19.93;;;3.50;99.90;;;;;;5060002;28;20287;-68
2022/12/03 02:07:32;;;;;;;48.37;19.17;;;3.50;99.90;;;;;;5060806;28;20204;-68
2022/12/03 02:10:02;;;;;;;46.17;19.43;;;3.60;99.90;;;;;;5045708;28;20205;-68
2022/12/03 02:12:40;;;;;;;45.30;18.77;;;3.50;99.90;;;;;;5066488;28;20315;-67
2022/12/03 02:15:09;;;;;;;44.90;17.73;;;3.60;99.90;;;;;;5060605;28;20271;-67
2022/12/03 02:17:36;;;;;;;40.83;17.53;;;3.60;99.90;;;;;;5066388;28;20275;-69
2022/12/03 02:20:06;;;;;;;46.00;19.47;;;3.60;99.90;;;;;;5059605;28;20311;-68
2022/12/03 02:22:45;;;;;;;41.10;19.30;;;3.60;99.90;;;;;;5067432;28;20319;-68
2022/12/03 02:25:13;;;;;;;40.97;18.27;;;3.60;99.90;;;;;;5066986;28;20726;-68
2022/12/03 02:27:40;;;;;;;43.50;19.67;;;3.50;99.90;;;;;;5060243;28;20225;-68
2022/12/03 02:30:09;;;;;;;43.30;19.60;;;3.60;99.90;;;;;;5060057;28;20198;-69
2022/12/03 02:32:36;;;;;;;50.30;21.20;;;3.60;99.90;;;;;;5059099;28;20309;-69
2022/12/03 02:35:03;;;;;;;43.73;19.90;;;3.60;99.90;;;;;;5055584;28;20226;-67
2022/12/03 02:37:34;;;;;;;45.57;19.10;;;3.60;99.90;;;;;;5067498;28;20231;-67
2022/12/03 02:40:09;;;;;;;42.37;20.23;;;3.60;99.90;;;;;;5052700;28;20236;-69
2022/12/03 02:42:37;;;;;;;46.13;21.03;;;3.60;99.90;;;;;;5058445;28;20231;-68
2022/12/03 02:45:32;;;;;;;45.87;19.73;;;3.50;99.90;;;;;;5053839;28;20297;-67
2022/12/03 02:48:07;;;;;;;45.53;19.43;;;3.50;99.90;;;;;;5054835;28;20201;-68
2022/12/03 02:50:41;;;;;;;42.00;19.37;;;3.50;99.90;;;;;;5059002;28;20749;-69
2022/12/03 02:53:18;;;;;;;45.10;19.50;;;3.40;99.90;;;;;;5044694;28;20227;-68
2022/12/03 02:55:47;;;;;;;47.83;21.00;;;3.50;99.90;;;;;;5048652;28;20748;-69
2022/12/03 02:58:15;;;;;;;49.50;20.97;;;3.50;99.90;;;;;;5059734;28;20242;-68
2022/12/03 03:00:44;;;;;;;43.27;19.90;;;3.60;99.90;;;;;;5059956;28;20328;-69
2022/12/03 03:03:12;;;;;;;49.70;21.03;;;3.60;99.90;;;;;;5060221;28;20202;-67
2022/12/03 03:05:40;;;;;;;48.17;21.27;;;3.50;99.90;;;;;;5055124;28;20305;-67
2022/12/03 03:08:08;;;;;;;45.73;20.67;;;3.50;99.90;;;;;;5040156;28;20312;-67
2022/12/03 03:10:37;;;;;;;48.00;21.00;;;3.50;99.90;;;;;;5063684;28;20216;-69
2022/12/03 03:13:15;;;;;;;45.17;20.47;;;3.50;99.90;;;;;;5059032;28;20258;-68
2022/12/03 03:15:42;;;;;;;54.63;20.03;;;3.50;99.90;;;;;;5037870;28;20739;-67
2022/12/03 03:18:11;;;;;;;49.67;21.17;;;3.50;99.90;;;;;;5061940;28;20193;-68
2022/12/03 03:20:39;;;;;;;45.90;22.00;;;3.50;99.90;;;;;;5053043;28;20210;-68
2022/12/03 03:23:12;;;;;;;47.33;21.73;;;3.50;99.90;;;;;;5063182;28;20209;-68
2022/12/03 03:25:42;;;;;;;47.03;20.80;;;3.50;99.90;;;;;;5058600;28;20327;-69
2022/12/03 03:28:10;;;;;;;52.50;21.33;;;3.50;99.90;;;;;;5060301;28;20304;-69
2022/12/03 03:30:38;;;;;;;50.07;20.37;;;3.50;99.90;;;;;;5046923;28;20679;-68
2022/12/03 03:33:05;;;;;;;44.40;21.30;;;3.50;99.90;;;;;;5055391;28;20524;-66
2022/12/03 03:35:32;;;;;;;47.20;20.07;;;3.50;99.90;;;;;;5057238;28;20209;-68
2022/12/03 03:37:59;;;;;;;50.63;21.37;;;3.50;99.90;;;;;;5060213;28;20244;-69
2022/12/03 03:40:27;;;;;;;47.83;21.67;;;3.50;99.90;;;;;;5061698;28;20555;-69
2022/12/03 03:42:54;;;;;;;52.73;21.90;;;3.50;99.90;;;;;;5053588;28;20229;-67
2022/12/03 03:45:21;;;;;;;48.20;21.50;;;3.70;99.90;;;;;;5040424;28;20692;-67
2022/12/03 03:47:56;;;;;;;49.27;21.67;;;3.50;99.90;;;;;;5054881;28;20580;-68
2022/12/03 03:50:24;;;;;;;44.97;22.30;;;3.50;99.90;;;;;;5056064;28;20236;-68
2022/12/03 03:52:51;;;;;;;45.97;20.87;;;3.40;99.90;;;;;;5055929;28;20782;-67
2022/12/03 03:55:19;;;;;;;49.37;21.97;;;3.40;99.90;;;;;;5059468;28;20319;-67
2022/12/03 03:57:47;;;;;;;50.03;22.60;;;3.40;99.90;;;;;;5057075;28;20250;-69
2022/12/03 04:00:14;;;;;;;54.93;22.67;;;3.30;99.90;;;;;;5062052;28;20312;-67
2022/12/03 04:02:42;;;;;;;51.53;22.23;;;3.30;99.90;;;;;;5054542;28;20200;-67
2022/12/03 04:05:18;;;;;;;49.33;22.00;;;3.30;99.90;;;;;;5060098;28;20213;-67
2022/12/03 04:07:46;;;;;;;57.30;22.63;;;3.30;99.90;;;;;;5057486;28;20293;-68
2022/12/03 04:13:00;;;;;;;50.97;21.83;;;3.20;99.90;;;;;;5055343;28;20260;-68
2022/12/03 04:15:27;;;;;;;56.83;24.23;;;3.20;99.90;;;;;;5055736;28;20321;-67
2022/12/03 04:20:39;;;;;;;56.67;24.67;;;3.10;99.90;;;;;;5058053;28;20610;-69
2022/12/03 04:23:07;;;;;;;56.00;24.37;;;3.10;99.90;;;;;;5058395;28;20347;-68
2022/12/03 04:36:37;;;;;;;59.83;23.40;;;3.10;99.90;;;;;;5062871;28;20206;-69
2022/12/03 04:39:04;;;;;;;56.87;24.50;;;3.10;99.90;;;;;;5068033;28;20385;-68
2022/12/03 04:41:30;;;;;;;55.00;24.13;;;3.10;99.90;;;;;;5064241;28;20234;-69
2022/12/03 04:46:44;;;;;;;56.80;23.80;;;3.10;99.90;;;;;;5059070;28;20704;-69
2022/12/03 04:49:11;;;;;;;53.13;23.70;;;3.10;99.90;;;;;;5060052;28;20205;-68
2022/12/03 04:51:37;;;;;;;50.77;23.23;;;3.10;99.90;;;;;;5064048;28;20197;-68
2022/12/03 04:54:04;;;;;;;54.90;24.97;;;3.20;99.90;;;;;;5057653;28;20239;-68
2022/12/03 04:56:31;;;;;;;50.83;22.90;;;3.20;99.90;;;;;;5063271;28;20327;-69
2022/12/03 04:58:58;;;;;;;51.40;24.13;;;3.20;99.90;;;;;;5060490;28;20200;-68
2022/12/03 05:01:25;;;;;;;53.73;23.97;;;3.20;99.90;;;;;;5063542;28;20213;-68
2022/12/03 05:03:52;;;;;;;56.97;23.80;;;3.20;99.90;;;;;;5061341;28;20621;-68
2022/12/03 05:06:18;;;;;;;57.23;24.77;;;3.30;99.90;;;;;;5060269;28;20232;-67
2022/12/03 05:08:45;;;;;;;44.07;21.63;;;3.30;99.90;;;;;;5066914;28;20287;-69
2022/12/03 05:11:12;;;;;;;47.97;22.27;;;3.30;99.90;;;;;;5064802;28;20283;-68
2022/12/03 05:13:39;;;;;;;57.50;26.83;;;3.20;99.90;;;;;;5058896;28;20207;-69
2022/12/03 05:16:06;;;;;;;45.70;21.73;;;3.20;99.90;;;;;;5061742;28;20212;-67
2022/12/03 05:18:32;;;;;;;46.90;21.10;;;3.30;99.90;;;;;;5062571;28;20234;-67
2022/12/03 05:20:59;;;;;;;53.37;23.07;;;3.20;99.90;;;;;;5076338;28;20549;-69
2022/12/03 05:23:26;;;;;;;47.40;22.60;;;3.20;99.90;;;;;;5066265;28;20544;-69
2022/12/03 05:25:53;;;;;;;51.23;24.20;;;3.10;99.90;;;;;;5062199;28;20216;-67
2022/12/03 05:28:22;;;;;;;53.27;21.63;;;3.10;99.90;;;;;;5065281;28;20228;-68
2022/12/03 05:30:49;;;;;;;48.17;22.77;;;3.10;99.90;;;;;;5064271;28;20387;-68
2022/12/03 05:33:16;;;;;;;50.03;23.30;;;3.10;99.90;;;;;;5060236;28;20217;-68
2022/12/03 05:35:43;;;;;;;45.30;22.13;;;3.10;99.90;;;;;;5060270;28;20237;-67
2022/12/03 05:38:10;;;;;;;48.23;22.30;;;3.10;99.90;;;;;;5069594;28;20791;-68
2022/12/03 05:40:37;;;;;;;43.50;21.43;;;3.00;99.90;;;;;;5057964;28;20211;-68
2022/12/03 05:43:04;;;;;;;47.27;22.87;;;3.00;99.90;;;;;;5059293;28;20228;-67
2022/12/03 05:45:38;;;;;;;45.63;21.70;;;3.00;99.90;;;;;;5061883;28;20324;-69
2022/12/03 05:48:08;;;;;;;44.00;20.43;;;3.10;99.90;;;;;;5059799;28;20228;-67
2022/12/03 05:50:36;;;;;;;49.70;22.50;;;3.10;99.90;;;;;;5059319;28;20672;-68
2022/12/03 05:53:03;;;;;;;51.17;23.23;;;3.00;99.90;;;;;;5062888;28;20206;-67
2022/12/03 05:55:30;;;;;;;51.10;23.07;;;3.00;99.90;;;;;;5064013;28;20327;-68
2022/12/03 05:57:57;;;;;;;51.87;22.53;;;2.90;99.90;;;;;;5055970;28;20227;-67
2022/12/03 06:00:27;;;;;;;44.20;20.67;;;2.90;99.90;;;;;;5062497;28;20210;-67
2022/12/03 06:02:54;;;;;;;49.00;21.87;;;2.90;99.90;;;;;;5045022;28;20580;-68
2022/12/03 06:05:22;;;;;;;51.63;22.70;;;2.90;99.90;;;;;;5062558;28;20208;-67
2022/12/03 06:07:51;;;;;;;47.47;21.07;;;2.90;99.90;;;;;;5060400;28;20220;-67
2022/12/03 06:10:20;;;;;;;44.17;20.50;;;2.90;99.90;;;;;;5065760;28;20264;-68
2022/12/03 06:12:47;;;;;;;45.67;21.60;;;2.90;99.90;;;;;;5062416;28;20588;-68
2022/12/03 06:15:14;;;;;;;47.33;21.10;;;2.80;99.90;;;;;;5060242;28;20323;-67
2022/12/03 06:17:41;;;;;;;46.83;21.70;;;2.80;99.90;;;;;;5056251;28;20240;-67
2022/12/03 06:20:12;;;;;;;46.03;21.63;;;2.80;99.90;;;;;;5059668;28;20326;-68
2022/12/03 06:22:39;;;;;;;45.83;21.53;;;2.80;99.90;;;;;;5064133;28;20211;-68
2022/12/03 06:25:06;;;;;;;47.70;22.13;;;2.80;99.90;;;;;;5039300;28;20245;-68
2022/12/03 06:27:34;;;;;;;52.67;24.83;;;2.80;99.90;;;;;;5063683;28;20302;-68
2022/12/03 06:30:01;;;;;;;51.50;22.10;;;2.80;99.90;;;;;;5063677;28;20298;-67
2022/12/03 06:32:28;;;;;;;50.23;23.27;;;2.80;99.90;;;;;;5059137;28;20294;-68
2022/12/03 06:34:55;;;;;;;50.27;23.10;;;2.80;99.90;;;;;;5059654;28;20236;-68
2022/12/03 06:37:22;;;;;;;52.17;24.13;;;2.80;99.90;;;;;;5065984;28;20225;-68
2022/12/03 06:39:49;;;;;;;51.70;23.70;;;2.80;99.90;;;;;;5080847;28;20200;-68
2022/12/03 06:42:18;;;;;;;46.00;21.40;;;2.70;99.90;;;;;;5061787;28;20320;-68
2022/12/03 06:44:44;;;;;;;55.60;23.27;;;2.70;99.90;;;;;;5064069;28;20210;-68
2022/12/03 06:47:11;;;;;;;53.60;22.60;;;2.70;99.90;;;;;;5058647;28;20221;-68
2022/12/03 06:49:38;;;;;;;50.87;23.10;;;2.70;99.90;;;;;;5065070;28;20198;-68
2022/12/03 06:52:05;;;;;;;54.60;23.67;;;2.70;99.90;;;;;;5061824;28;20765;-69
2022/12/03 06:54:31;;;;;;;52.63;22.23;;;2.70;99.90;;;;;;5069403;28;20225;-68
2022/12/03 06:57:04;;;;;;;54.37;23.87;;;2.70;99.90;;;;;;5058043;28;20222;-69
2022/12/03 06:59:33;;;;;;;51.50;23.00;;;2.70;99.90;;;;;;5050230;28;20246;-69
2022/12/03 07:02:02;;;;;;;49.03;22.60;;;2.70;99.90;;;;;;5065709;28;20631;-68
2022/12/03 07:04:29;;;;;;;50.70;23.27;;;2.60;99.90;;;;;;5066219;28;20201;-67
2022/12/03 07:06:57;;;;;;;57.10;24.53;;;2.70;99.90;;;;;;5067145;28;20210;-68
2022/12/03 07:09:24;;;;;;;52.73;22.97;;;2.70;99.90;;;;;;5062264;28;20608;-68
2022/12/03 07:11:51;;;;;;;54.10;24.30;;;2.70;99.90;;;;;;5062930;28;20258;-68
2022/12/03 07:14:18;;;;;;;57.93;25.80;;;2.80;99.90;;;;;;5051826;28;20322;-69
2022/12/03 07:16:46;;;;;;;58.50;24.07;;;2.80;99.90;;;;;;5067298;28;20237;-69
2022/12/03 07:19:13;;;;;;;57.03;25.03;;;2.80;99.90;;;;;;5060215;28;20204;-68
2022/12/03 07:21:40;;;;;;;60.33;25.40;;;2.80;99.90;;;;;;5064071;28;20294;-68
2022/12/03 07:24:07;;;;;;;61.03;25.07;;;2.80;99.90;;;;;;5048254;28;20226;-69
2022/12/03 07:26:34;;;;;;;56.03;24.20;;;2.90;99.90;;;;;;5048169;28;20215;-68
2022/12/03 07:29:00;;;;;;;56.47;24.60;;;2.80;99.90;;;;;;5066054;28;20714;-67
2022/12/03 07:31:27;;;;;;;54.80;25.10;;;2.90;99.90;;;;;;5068695;28;20277;-68
2022/12/03 07:33:54;;;;;;;56.57;23.90;;;2.90;99.90;;;;;;5063519;28;20577;-68
2022/12/03 07:36:21;;;;;;;58.90;25.20;;;2.90;99.90;;;;;;5045879;28;20240;-68
2022/12/03 07:38:48;;;;;;;57.97;24.67;;;3.00;99.90;;;;;;5065182;28;20243;-68
2022/12/03 07:41:14;;;;;;;58.17;23.30;;;2.90;99.90;;;;;;5062137;28;20197;-70
2022/12/03 07:43:41;;;;;;;52.70;23.63;;;2.90;99.90;;;;;;5064962;28;20203;-68
2022/12/03 07:46:08;;;;;;;61.63;24.80;;;2.90;99.90;;;;;;5062919;28;20209;-70
2022/12/03 07:48:35;;;;;;;56.60;24.17;;;2.90;99.90;;;;;;5060587;28;20204;-67
2022/12/03 07:51:02;;;;;;;57.17;24.10;;;2.90;99.90;;;;;;5062096;28;20253;-69
2022/12/03 07:53:31;;;;;;;61.70;24.53;;;3.00;99.90;;;;;;5062472;28;20343;-68
2022/12/03 07:55:58;;;;;;;52.30;24.30;;;3.00;99.90;;;;;;5052346;28;20920;-68
2022/12/03 07:58:25;;;;;;;54.33;24.30;;;3.00;99.90;;;;;;5075222;28;20314;-69
2022/12/03 08:00:51;;;;;;;57.17;24.57;;;3.00;99.90;;;;;;5058950;28;20208;-68
2022/12/03 08:03:18;;;;;;;58.93;24.63;;;3.00;99.90;;;;;;5054218;28;20695;-69
2022/12/03 08:05:45;;;;;;;57.67;24.03;;;3.20;99.90;;;;;;5066619;28;20303;-68
2022/12/03 08:08:12;;;;;;;60.37;23.93;;;3.00;99.90;;;;;;5066837;28;20301;-67
2022/12/03 08:10:39;;;;;;;54.87;23.03;;;3.00;99.90;;;;;;5067788;28;20212;-68
2022/12/03 08:13:14;;;;;;;58.07;24.40;;;3.10;99.90;;;;;;5064945;28;20223;-68
2022/12/03 08:15:41;;;;;;;56.40;23.93;;;3.20;99.90;;;;;;5070145;28;20250;-68
2022/12/03 08:18:15;;;;;;;66.13;24.17;;;3.10;99.90;;;;;;5047986;28;20208;-69
2022/12/03 08:20:43;;;;;;;59.43;25.50;;;3.10;99.90;;;;;;5069529;28;20221;-67
2022/12/03 08:23:28;;;;;;;54.37;24.83;;;3.10;99.90;;;;;;5059012;28;20212;-68
2022/12/03 08:26:00;;;;;;;56.63;23.57;;;2.90;99.90;;;;;;5055720;28;20201;-69
2022/12/03 08:28:27;;;;;;;61.67;23.97;;;2.80;99.90;;;;;;5063063;28;20250;-67
2022/12/03 08:31:02;;;;;;;62.70;23.43;;;2.90;99.90;;;;;;5064526;28;20299;-67
2022/12/03 08:33:34;;;;;;;66.97;23.77;;;2.80;99.90;;;;;;5065565;28;20253;-69
2022/12/03 08:36:20;;;;;;;61.43;21.60;;;2.70;99.90;;;;;;5065817;28;20267;-69
2022/12/03 08:38:53;;;;;;;61.57;22.67;;;2.70;99.90;;;;;;5046800;28;20319;-68
2022/12/03 08:44:27;;;;;;;72.23;22.97;;;2.30;99.90;;;;;;5063305;28;20299;-68
2022/12/03 08:47:08;;;;;;;60.23;22.63;;;2.30;99.90;;;;;;5059278;28;20201;-68
2022/12/03 08:49:36;;;;;;;61.17;22.00;;;2.30;99.90;;;;;;5058231;28;20253;-68
2022/12/03 08:52:14;;;;;;;66.27;22.83;;;2.30;99.90;;;;;;5063521;28;20225;-68
2022/12/03 08:54:46;;;;;;;71.87;21.40;;;2.30;99.90;;;;;;5064273;28;20589;-68
2022/12/03 08:57:33;;;;;;;63.17;22.33;;;2.30;99.90;;;;;;5062422;28;20341;-70
2022/12/03 09:00:21;;;;;;;59.97;22.17;;;2.30;99.90;;;;;;5068371;28;20304;-68
2022/12/03 09:02:54;;;;;;;61.67;21.27;;;2.20;99.90;;;;;;5064024;28;20297;-68
2022/12/03 09:05:25;;;;;;;63.83;24.73;;;2.20;99.90;;;;;;5042089;28;20215;-68
2022/12/03 09:07:51;;;;;;;57.70;22.67;;;2.10;99.90;;;;;;5064592;28;20675;-70
2022/12/03 09:10:18;;;;;;;58.80;22.23;;;2.20;99.90;;;;;;5078316;28;20218;-68
2022/12/03 09:12:45;;;;;;;53.90;18.93;;;2.10;99.90;;;;;;5066958;28;20218;-70
2022/12/03 09:15:12;;;;;;;48.33;19.57;;;2.20;99.90;;;;;;5062827;28;20262;-69
2022/12/03 09:17:38;;;;;;;53.30;21.63;;;2.20;99.90;;;;;;5059397;28;20210;-69
2022/12/03 09:20:06;;;;;;;54.10;19.63;;;2.10;99.90;;;;;;5060604;28;20203;-68
2022/12/03 09:22:32;;;;;;;53.90;20.70;;;2.20;99.90;;;;;;5060656;28;20291;-70
2022/12/03 09:24:59;;;;;;;50.70;19.47;;;2.20;99.90;;;;;;5060032;28;20718;-68
2022/12/03 09:27:26;;;;;;;43.07;16.97;;;2.30;99.90;;;;;;5066567;28;20230;-70
2022/12/03 09:29:53;;;;;;;54.37;20.23;;;2.40;99.90;;;;;;5064652;28;20652;-69
2022/12/03 09:32:19;;;;;;;42.90;18.20;;;2.40;99.90;;;;;;5065547;28;20210;-69
2022/12/03 09:34:46;;;;;;;44.07;18.77;;;2.30;99.90;;;;;;5059783;28;20423;-71
2022/12/03 09:37:13;;;;;;;47.40;19.90;;;2.30;99.90;;;;;;5064008;28;20273;-68
2022/12/03 09:39:40;;;;;;;48.40;18.10;;;2.30;99.90;;;;;;5073481;28;20281;-69
2022/12/03 09:42:07;;;;;;;48.53;20.00;;;2.30;99.90;;;;;;5065056;28;20640;-69
2022/12/03 09:44:35;;;;;;;49.47;19.17;;;2.30;99.90;;;;;;5062062;28;20306;-69
2022/12/03 09:47:03;;;;;;;56.10;19.93;;;2.40;99.90;;;;;;5064344;28;20202;-69
2022/12/03 09:49:32;;;;;;;52.70;18.50;;;2.50;99.90;;;;;;5072431;28;20655;-68
2022/12/03 09:52:01;;;;;;;48.10;19.17;;;2.50;99.90;;;;;;5062596;28;20197;-70
2022/12/03 09:54:29;;;;;;;48.93;19.80;;;2.50;99.90;;;;;;5063570;28;20290;-69
2022/12/03 09:56:59;;;;;;;51.60;20.37;;;2.40;99.90;;;;;;5060018;28;20232;-68
2022/12/03 09:59:32;;;;;;;47.67;18.60;;;2.30;99.90;;;;;;5064886;28;20214;-68
2022/12/03 10:01:59;;;;;;;51.00;17.00;;;2.30;99.90;;;;;;5062151;28;20201;-69
2022/12/03 10:04:30;;;;;;;53.93;20.13;;;2.30;99.90;;;;;;5064050;28;20206;-69
2022/12/03 10:06:57;;;;;;;55.23;18.50;;;2.30;99.90;;;;;;5062996;28;20301;-68
2022/12/03 10:09:27;;;;;;;45.33;17.93;;;2.30;99.90;;;;;;5044220;28;20210;-68
2022/12/03 10:11:56;;;;;;;53.47;20.03;;;2.30;99.90;;;;;;5062530;28;20562;-68
2022/12/03 10:14:22;;;;;;;50.30;21.53;;;2.30;99.90;;;;;;5061420;28;20200;-68
2022/12/03 10:16:49;;;;;;;51.97;18.43;;;2.30;99.90;;;;;;5059364;28;20591;-68
2022/12/03 10:19:29;;;;;;;42.70;20.00;;;2.20;99.90;;;;;;5067925;28;20200;-68
2022/12/03 10:21:56;;;;;;;49.83;19.23;;;2.10;99.90;;;;;;5065520;28;20196;-68
2022/12/03 10:24:31;;;;;;;51.70;20.80;;;2.10;99.90;;;;;;5050154;28;20203;-69
2022/12/03 10:27:00;;;;;;;49.63;19.20;;;2.10;99.90;;;;;;5062109;28;20370;-69
2022/12/03 10:29:33;;;;;;;53.43;20.33;;;2.10;99.90;;;;;;5066167;28;20210;-69
2022/12/03 10:32:07;;;;;;;57.67;20.47;;;2.10;99.90;;;;;;5062198;28;20208;-68
2022/12/03 10:34:39;;;;;;;46.30;18.63;;;2.10;99.90;;;;;;5065732;28;20195;-68
2022/12/03 10:37:13;;;;;;;51.30;20.33;;;2.00;99.90;;;;;;5060601;28;20331;-68
2022/12/03 10:40:09;;;;;;;57.23;21.13;;;2.10;99.90;;;;;;5058831;28;20310;-68
2022/12/03 10:42:38;;;;;;;53.87;20.70;;;2.10;99.90;;;;;;5062201;28;20227;-68
2022/12/03 10:45:19;;;;;;;62.20;21.73;;;2.10;99.90;;;;;;5072060;28;20231;-68
2022/12/03 10:48:26;;;;;;;56.07;20.03;;;2.10;99.90;;;;;;5073496;28;20197;-69
2022/12/03 10:51:09;;;;;;;54.43;20.90;;;2.10;99.90;;;;;;5065409;28;20231;-69
2022/12/03 10:53:38;;;;;;;48.43;20.40;;;1.90;99.90;;;;;;5067503;28;20203;-68
2022/12/03 10:56:07;;;;;;;58.43;20.87;;;2.10;99.90;;;;;;5048683;28;20237;-68
2022/12/03 10:58:36;;;;;;;59.50;22.33;;;2.00;99.90;;;;;;5062482;28;20235;-69
2022/12/03 11:01:14;;;;;;;56.17;20.27;;;2.00;99.90;;;;;;5062958;28;20229;-70
2022/12/03 11:03:41;;;;;;;63.03;21.00;;;2.10;99.90;;;;;;5059273;28;20535;-70
2022/12/03 11:06:14;;;;;;;60.73;21.23;;;2.00;99.90;;;;;;5053968;28;20583;-68
2022/12/03 11:08:48;;;;;;;55.53;19.13;;;2.00;99.90;;;;;;5061268;28;20335;-68
2022/12/03 11:11:27;;;;;;;52.27;18.83;;;1.70;99.90;;;;;;5065239;28;20619;-71
2022/12/03 11:13:56;;;;;;;53.60;19.63;;;1.90;99.90;;;;;;5057150;28;20234;-70
2022/12/03 11:16:38;;;;;;;49.23;17.73;;;1.90;99.90;;;;;;5061479;28;20229;-68
2022/12/03 11:19:11;;;;;;;45.57;16.90;;;2.00;99.90;;;;;;5061184;28;20204;-69
2022/12/03 11:22:04;;;;;;;44.80;16.20;;;2.00;99.90;;;;;;5062918;28;20198;-71
2022/12/03 11:24:40;;;;;;;42.10;14.80;;;2.10;99.90;;;;;;5060550;28;20940;-68
2022/12/03 11:27:17;;;;;;;43.67;17.10;;;2.10;99.90;;;;;;5054868;28;20230;-68
2022/12/03 11:30:00;;;;;;;41.43;17.50;;;2.10;99.90;;;;;;5055184;28;20346;-71
2022/12/03 11:32:42;;;;;;;50.33;17.83;;;2.10;99.90;;;;;;5044178;28;20206;-71
2022/12/03 11:35:22;;;;;;;44.57;16.27;;;2.20;99.90;;;;;;5065417;28;20633;-69
2022/12/03 11:37:49;;;;;;;51.17;18.67;;;2.20;99.90;;;;;;5073632;28;20651;-69
2022/12/03 11:40:15;;;;;;;60.47;20.33;;;2.10;99.90;;;;;;5051255;28;20197;-69
2022/12/03 11:42:44;;;;;;;60.27;21.23;;;2.10;99.90;;;;;;5060422;28;20265;-68
2022/12/03 11:45:26;;;;;;;58.37;18.40;;;2.10;99.90;;;;;;5064459;28;20688;-68
2022/12/03 11:48:03;;;;;;;54.90;19.43;;;2.00;99.90;;;;;;5063780;28;20230;-67
2022/12/03 11:50:37;;;;;;;55.60;19.60;;;2.00;99.90;;;;;;5067509;28;20732;-68
2022/12/03 11:53:22;;;;;;;54.73;20.03;;;2.00;99.90;;;;;;5068276;28;20221;-68
2022/12/03 11:56:07;;;;;;;60.30;21.70;;;2.00;99.90;;;;;;5051379;28;20226;-68
2022/12/03 11:58:37;;;;;;;81.13;25.87;;;2.00;99.90;;;;;;5072095;28;20766;-68
2022/12/03 12:01:06;;;;;;;77.37;25.20;;;2.00;99.90;;;;;;5053397;28;20195;-68
2022/12/03 12:03:42;;;;;;;78.73;25.33;;;2.10;99.90;;;;;;5063622;28;20293;-69
2022/12/03 12:06:12;;;;;;;80.63;26.17;;;2.10;99.90;;;;;;5087525;28;20292;-69
2022/12/03 12:08:49;;;;;;;80.50;27.10;;;2.20;99.90;;;;;;5073229;28;20205;-68
2022/12/03 12:11:25;;;;;;;72.83;24.47;;;2.20;99.90;;;;;;5069845;28;20211;-69
2022/12/03 12:14:02;;;;;;;75.50;26.17;;;2.20;99.90;;;;;;5066316;28;20194;-69
2022/12/03 12:16:53;;;;;;;78.93;24.67;;;2.20;99.90;;;;;;5070209;28;20698;-69
2022/12/03 12:19:31;;;;;;;79.80;25.27;;;2.20;99.90;;;;;;5066772;28;20289;-69
2022/12/03 12:22:26;;;;;;;72.63;25.17;;;2.30;99.90;;;;;;5067904;28;20642;-68
2022/12/03 12:25:01;;;;;;;64.83;22.87;;;2.20;99.90;;;;;;5074254;28;20240;-69
2022/12/03 12:27:30;;;;;;;68.27;24.50;;;2.20;99.90;;;;;;5074455;28;20251;-68
2022/12/03 12:29:59;;;;;;;63.07;23.53;;;2.30;99.90;;;;;;5062025;28;20293;-69
2022/12/03 12:32:32;;;;;;;64.97;22.90;;;2.10;99.90;;;;;;5065775;28;20738;-69
2022/12/03 12:35:15;;;;;;;69.87;24.53;;;2.20;99.90;;;;;;5044705;28;20572;-68
2022/12/03 12:38:11;;;;;;;59.93;21.70;;;2.30;99.90;;;;;;5070920;28;20241;-69
2022/12/03 12:40:40;;;;;;;59.70;21.97;;;2.30;99.90;;;;;;5066664;28;20218;-69
2022/12/03 12:43:17;;;;;;;56.37;20.80;;;2.30;99.90;;;;;;5060339;28;20255;-70
2022/12/03 12:45:54;;;;;;;51.00;19.43;;;2.30;99.90;;;;;;5065272;28;20294;-68
2022/12/03 12:48:22;;;;;;;48.97;19.30;;;2.30;99.90;;;;;;5063592;28;20187;-69
2022/12/03 12:50:57;;;;;;;52.33;19.67;;;2.20;99.90;;;;;;5052814;28;20489;-70
2022/12/03 12:53:30;;;;;;;46.53;18.57;;;2.30;99.90;;;;;;5061420;28;20243;-69
2022/12/03 12:55:59;;;;;;;42.83;18.10;;;2.30;99.90;;;;;;5076858;28;20680;-69
2022/12/03 12:58:31;;;;;;;44.77;17.27;;;2.30;99.90;;;;;;5062396;28;20226;-70
2022/12/03 13:01:03;;;;;;;40.47;17.00;;;2.20;99.90;;;;;;5060807;28;20217;-68
2022/12/03 13:03:33;;;;;;;44.27;17.60;;;2.10;99.90;;;;;;5041105;28;20327;-69
2022/12/03 13:06:00;;;;;;;43.80;16.70;;;2.10;99.90;;;;;;5069642;28;20285;-68
2022/12/03 13:08:37;;;;;;;40.13;17.47;;;2.00;99.90;;;;;;5078583;28;20284;-71
2022/12/03 13:11:05;;;;;;;40.53;15.77;;;2.00;99.90;;;;;;5061548;28;20232;-69
2022/12/03 13:13:38;;;;;;;40.30;16.90;;;2.10;99.90;;;;;;5061767;28;20222;-68
2022/12/03 13:16:29;;;;;;;41.80;15.43;;;2.20;99.90;;;;;;5067127;28;20702;-68